VCP5T EGHQ-EGPF
Flight info
| Callsign | VCP5T |
|---|---|
| Flight time | 1h 12m |
| Altitude | 23000 |
| Route | EPACE N91 CARWI N864 AVTIC N38 NOKIN P16 RIBEL DCT ASLIB |
| Aircraft | F28/M-SDFIRWY/H |
Departure
| Time | 2026-04-22 10:28 |
|---|---|
| Airport | Cornwall Airport Newquay (EGHQ) |
Arrival
| Time | 2026-04-22 11:40 |
|---|---|
| Airport | Glasgow Airport (EGPF) |
| Time | Latitude | Longitude | Altitude | Speed | Heading |
|---|---|---|---|---|---|
| 2026-04-22 10:02 | 50.44624 | -5.00301 | 331 ft | 0 kts | 77° |
| 2026-04-22 10:21 | 50.44624 | -5.00304 | 333 ft | 2 kts | 76° |
| 2026-04-22 10:22 | 50.44614 | -5.00340 | 332 ft | 4 kts | 46° |
| 2026-04-22 10:22 | 50.44592 | -5.00350 | 330 ft | 4 kts | 333° |
| 2026-04-22 10:22 | 50.44583 | -5.00336 | 332 ft | 0 kts | 300° |
| 2026-04-22 10:25 | 50.44596 | -5.00369 | 331 ft | 8 kts | 301° |
| 2026-04-22 10:25 | 50.44631 | -5.00462 | 328 ft | 12 kts | 301° |
| 2026-04-22 10:25 | 50.44683 | -5.00602 | 323 ft | 16 kts | 300° |
| 2026-04-22 10:25 | 50.44735 | -5.00744 | 320 ft | 14 kts | 300° |
| 2026-04-22 10:26 | 50.44788 | -5.00885 | 317 ft | 14 kts | 301° |
| 2026-04-22 10:26 | 50.44808 | -5.01034 | 313 ft | 14 kts | 254° |
| 2026-04-22 10:26 | 50.44741 | -5.01148 | 311 ft | 15 kts | 204° |
| 2026-04-22 10:26 | 50.44673 | -5.01116 | 313 ft | 8 kts | 120° |
| 2026-04-22 10:27 | 50.44594 | -5.00902 | 317 ft | 49 kts | 120° |
| 2026-04-22 10:27 | 50.44343 | -5.00224 | 336 ft | 92 kts | 120° |
| 2026-04-22 10:27 | 50.44028 | -4.99158 | 355 ft | 120 kts | 110° |
| 2026-04-22 10:27 | 50.43685 | -4.98028 | 834 ft | 115 kts | 114° |
| 2026-04-22 10:28 | 50.43316 | -4.96867 | 1355 ft | 123 kts | 113° |
| 2026-04-22 10:28 | 50.42896 | -4.95526 | 1810 ft | 152 kts | 115° |
| 2026-04-22 10:28 | 50.42471 | -4.93948 | 2582 ft | 162 kts | 105° |
| 2026-04-22 10:28 | 50.42682 | -4.92194 | 3419 ft | 184 kts | 65° |
| 2026-04-22 10:29 | 50.43652 | -4.90755 | 4289 ft | 196 kts | 52° |
| 2026-04-22 10:29 | 50.44772 | -4.89368 | 4886 ft | 214 kts | 49° |
| 2026-04-22 10:29 | 50.45989 | -4.87910 | 5409 ft | 225 kts | 47° |
| 2026-04-22 10:29 | 50.47265 | -4.86385 | 5944 ft | 237 kts | 46° |
| 2026-04-22 10:30 | 50.48605 | -4.84775 | 6450 ft | 247 kts | 45° |
| 2026-04-22 10:30 | 50.49989 | -4.83110 | 6885 ft | 252 kts | 44° |
| 2026-04-22 10:30 | 50.51391 | -4.81423 | 7334 ft | 256 kts | 44° |
| 2026-04-22 10:30 | 50.52827 | -4.79692 | 7782 ft | 263 kts | 43° |
| 2026-04-22 10:31 | 50.54291 | -4.77902 | 8230 ft | 270 kts | 43° |
| 2026-04-22 10:31 | 50.55801 | -4.76061 | 8713 ft | 279 kts | 44° |
| 2026-04-22 10:31 | 50.57343 | -4.74181 | 9331 ft | 281 kts | 43° |
| 2026-04-22 10:31 | 50.58919 | -4.72387 | 9941 ft | 285 kts | 42° |
| 2026-04-22 10:32 | 50.60506 | -4.70497 | 10520 ft | 286 kts | 45° |
| 2026-04-22 10:32 | 50.62021 | -4.68448 | 11102 ft | 287 kts | 46° |
| 2026-04-22 10:32 | 50.63465 | -4.66256 | 11675 ft | 289 kts | 49° |
| 2026-04-22 10:32 | 50.64879 | -4.63982 | 12259 ft | 291 kts | 50° |
| 2026-04-22 10:33 | 50.65787 | -4.62419 | 12640 ft | 292 kts | 51° |
| 2026-04-22 10:33 | 50.67133 | -4.59983 | 13191 ft | 295 kts | 51° |
| 2026-04-22 10:33 | 50.68917 | -4.56708 | 13887 ft | 298 kts | 55° |
| 2026-04-22 10:33 | 50.70246 | -4.54177 | 14368 ft | 302 kts | 53° |
| 2026-04-22 10:34 | 50.71611 | -4.51638 | 14832 ft | 305 kts | 54° |
| 2026-04-22 10:34 | 50.72532 | -4.49896 | 15122 ft | 307 kts | 55° |
| 2026-04-22 10:34 | 50.73907 | -4.47294 | 15591 ft | 310 kts | 54° |
| 2026-04-22 10:34 | 50.75324 | -4.44691 | 16034 ft | 313 kts | 53° |
| 2026-04-22 10:35 | 50.76719 | -4.42072 | 16450 ft | 317 kts | 54° |
| 2026-04-22 10:35 | 50.78155 | -4.39402 | 16840 ft | 321 kts | 54° |
| 2026-04-22 10:35 | 50.79608 | -4.36686 | 17235 ft | 326 kts | 54° |
| 2026-04-22 10:35 | 50.81066 | -4.33898 | 17603 ft | 330 kts | 53° |
| 2026-04-22 10:36 | 50.82552 | -4.31098 | 17991 ft | 334 kts | 53° |
| 2026-04-22 10:36 | 50.84046 | -4.28253 | 18390 ft | 338 kts | 53° |
| 2026-04-22 10:36 | 50.85571 | -4.25387 | 18754 ft | 342 kts | 53° |
| 2026-04-22 10:36 | 50.87087 | -4.22535 | 19060 ft | 344 kts | 52° |
| 2026-04-22 10:37 | 50.88634 | -4.19612 | 19399 ft | 347 kts | 51° |
| 2026-04-22 10:37 | 50.91764 | -4.13696 | 20056 ft | 354 kts | 51° |
| 2026-04-22 10:37 | 50.93348 | -4.10681 | 20376 ft | 357 kts | 52° |
| 2026-04-22 10:38 | 50.94937 | -4.07643 | 20792 ft | 358 kts | 51° |
| 2026-04-22 10:38 | 50.96550 | -4.04597 | 21003 ft | 363 kts | 52° |
| 2026-04-22 10:38 | 50.98172 | -4.01525 | 21402 ft | 363 kts | 51° |
| 2026-04-22 10:38 | 50.99801 | -3.98435 | 21696 ft | 367 kts | 52° |
| 2026-04-22 10:39 | 51.01440 | -3.95322 | 22037 ft | 367 kts | 51° |
| 2026-04-22 10:39 | 51.03080 | -3.92201 | 22355 ft | 370 kts | 51° |
| 2026-04-22 10:39 | 51.04740 | -3.89040 | 22656 ft | 372 kts | 51° |
| 2026-04-22 10:39 | 51.06374 | -3.85919 | 22952 ft | 374 kts | 51° |
| 2026-04-22 10:40 | 51.08048 | -3.82712 | 23140 ft | 380 kts | 51° |
| 2026-04-22 10:40 | 51.09750 | -3.79446 | 23246 ft | 387 kts | 51° |
| 2026-04-22 10:40 | 51.11485 | -3.76093 | 23255 ft | 397 kts | 50° |
| 2026-04-22 10:40 | 51.13265 | -3.72668 | 23261 ft | 406 kts | 50° |
| 2026-04-22 10:41 | 51.15091 | -3.69175 | 23256 ft | 414 kts | 50° |
| 2026-04-22 10:41 | 51.16938 | -3.65600 | 23258 ft | 422 kts | 51° |
| 2026-04-22 10:41 | 51.18815 | -3.61944 | 23255 ft | 429 kts | 51° |
| 2026-04-22 10:41 | 51.20718 | -3.58277 | 23256 ft | 429 kts | 50° |
| 2026-04-22 10:42 | 51.22651 | -3.54646 | 23252 ft | 428 kts | 47° |
| 2026-04-22 10:42 | 51.24747 | -3.51266 | 23244 ft | 428 kts | 43° |
| 2026-04-22 10:42 | 51.26983 | -3.48131 | 23238 ft | 427 kts | 39° |
| 2026-04-22 10:42 | 51.29295 | -3.45159 | 23256 ft | 423 kts | 37° |
| 2026-04-22 10:43 | 51.31568 | -3.42340 | 23248 ft | 417 kts | 37° |
| 2026-04-22 10:43 | 51.33875 | -3.39521 | 23257 ft | 417 kts | 37° |
| 2026-04-22 10:43 | 51.36183 | -3.36688 | 23262 ft | 417 kts | 37° |
| 2026-04-22 10:43 | 51.38482 | -3.33863 | 23267 ft | 417 kts | 36° |
| 2026-04-22 10:44 | 51.40928 | -3.31405 | 23272 ft | 414 kts | 24° |
| 2026-04-22 10:44 | 51.43612 | -3.29798 | 23281 ft | 412 kts | 13° |
| 2026-04-22 10:44 | 51.46389 | -3.28720 | 23284 ft | 410 kts | 8° |
| 2026-04-22 10:44 | 51.49204 | -3.27972 | 23273 ft | 409 kts | 6° |
| 2026-04-22 10:45 | 51.52029 | -3.27359 | 23281 ft | 409 kts | 6° |
| 2026-04-22 10:45 | 51.54861 | -3.26826 | 23284 ft | 409 kts | 5° |
| 2026-04-22 10:45 | 51.57693 | -3.26286 | 23283 ft | 409 kts | 4° |
| 2026-04-22 10:45 | 51.60482 | -3.25774 | 23285 ft | 409 kts | 5° |
| 2026-04-22 10:46 | 51.63311 | -3.25247 | 23390 ft | 409 kts | 5° |
| 2026-04-22 10:46 | 51.66135 | -3.24681 | 23403 ft | 409 kts | 4° |
| 2026-04-22 10:46 | 51.68957 | -3.24119 | 23416 ft | 409 kts | 5° |
| 2026-04-22 10:46 | 51.71784 | -3.23515 | 23426 ft | 409 kts | 6° |
| 2026-04-22 10:47 | 51.74604 | -3.22935 | 23432 ft | 409 kts | 5° |
| 2026-04-22 10:47 | 51.77428 | -3.22349 | 23439 ft | 409 kts | 5° |
| 2026-04-22 10:47 | 51.80256 | -3.21761 | 23419 ft | 409 kts | 5° |
| 2026-04-22 10:47 | 51.83080 | -3.21182 | 23415 ft | 409 kts | 6° |
| 2026-04-22 10:48 | 51.85865 | -3.20594 | 23414 ft | 408 kts | 4° |
| 2026-04-22 10:48 | 51.88691 | -3.20020 | 23396 ft | 408 kts | 5° |
| 2026-04-22 10:48 | 51.91520 | -3.19552 | 23390 ft | 407 kts | 2° |
| 2026-04-22 10:48 | 51.94345 | -3.19247 | 23376 ft | 407 kts | 1° |
| 2026-04-22 10:49 | 51.97172 | -3.19017 | 23360 ft | 407 kts | 1° |
| 2026-04-22 10:49 | 52.00009 | -3.18821 | 23347 ft | 406 kts | 0° |
| 2026-04-22 10:49 | 52.02837 | -3.18665 | 23348 ft | 406 kts | 359° |
| 2026-04-22 10:49 | 52.05663 | -3.18479 | 23338 ft | 406 kts | 360° |
| 2026-04-22 10:50 | 52.08486 | -3.18295 | 23328 ft | 406 kts | 360° |
| 2026-04-22 10:50 | 52.11276 | -3.18098 | 23326 ft | 406 kts | 1° |
| 2026-04-22 10:50 | 52.14100 | -3.17872 | 23328 ft | 406 kts | 2° |
| 2026-04-22 10:50 | 52.16926 | -3.17660 | 23331 ft | 406 kts | 0° |
| 2026-04-22 10:51 | 52.19743 | -3.17432 | 23334 ft | 405 kts | 360° |
| 2026-04-22 10:51 | 52.22566 | -3.17220 | 23337 ft | 405 kts | 359° |
| 2026-04-22 10:51 | 52.25387 | -3.17011 | 23346 ft | 405 kts | 1° |
| 2026-04-22 10:51 | 52.28203 | -3.16777 | 23334 ft | 405 kts | 1° |
| 2026-04-22 10:52 | 52.30980 | -3.16576 | 23337 ft | 405 kts | 1° |
| 2026-04-22 10:52 | 52.33796 | -3.16351 | 23352 ft | 405 kts | 0° |
| 2026-04-22 10:52 | 52.36610 | -3.16129 | 23353 ft | 404 kts | 359° |
| 2026-04-22 10:52 | 52.39424 | -3.15919 | 23352 ft | 404 kts | 360° |
| 2026-04-22 10:53 | 52.42233 | -3.15690 | 23349 ft | 404 kts | 1° |
| 2026-04-22 10:53 | 52.45043 | -3.15478 | 23354 ft | 404 kts | 0° |
| 2026-04-22 10:53 | 52.47856 | -3.15259 | 23350 ft | 404 kts | 0° |
| 2026-04-22 10:53 | 52.50665 | -3.15037 | 23356 ft | 403 kts | 358° |
| 2026-04-22 10:54 | 52.53472 | -3.14819 | 23363 ft | 404 kts | 358° |
| 2026-04-22 10:54 | 52.56270 | -3.14563 | 23358 ft | 403 kts | 0° |
| 2026-04-22 10:54 | 52.59078 | -3.14335 | 23361 ft | 403 kts | 360° |
| 2026-04-22 10:54 | 52.61845 | -3.14105 | 23360 ft | 402 kts | 0° |
| 2026-04-22 10:55 | 52.64677 | -3.13888 | 23363 ft | 402 kts | 359° |
| 2026-04-22 10:55 | 52.67471 | -3.13698 | 23362 ft | 402 kts | 359° |
| 2026-04-22 10:55 | 52.70256 | -3.13133 | 23364 ft | 405 kts | 7° |
| 2026-04-22 10:55 | 52.72994 | -3.11973 | 23381 ft | 408 kts | 15° |
| 2026-04-22 10:56 | 52.75661 | -3.10364 | 23378 ft | 410 kts | 18° |
| 2026-04-22 10:56 | 52.78277 | -3.08501 | 23372 ft | 411 kts | 21° |
| 2026-04-22 10:56 | 52.80873 | -3.06499 | 23369 ft | 411 kts | 21° |
| 2026-04-22 10:56 | 52.83418 | -3.04457 | 23376 ft | 411 kts | 24° |
| 2026-04-22 10:57 | 52.85994 | -3.02401 | 23385 ft | 411 kts | 23° |
| 2026-04-22 10:57 | 52.88575 | -3.00355 | 23384 ft | 411 kts | 21° |
| 2026-04-22 10:57 | 52.91193 | -2.98474 | 23391 ft | 410 kts | 20° |
| 2026-04-22 10:57 | 52.93844 | -2.96745 | 23393 ft | 409 kts | 18° |
| 2026-04-22 10:58 | 52.96511 | -2.95108 | 23394 ft | 409 kts | 17° |
| 2026-04-22 10:58 | 52.99188 | -2.93500 | 23404 ft | 409 kts | 17° |
| 2026-04-22 10:58 | 53.01862 | -2.91906 | 23399 ft | 409 kts | 17° |
| 2026-04-22 10:58 | 53.04544 | -2.90300 | 23403 ft | 409 kts | 17° |
| 2026-04-22 10:59 | 53.07218 | -2.88680 | 23404 ft | 409 kts | 17° |
| 2026-04-22 10:59 | 53.09890 | -2.87031 | 23406 ft | 409 kts | 18° |
| 2026-04-22 10:59 | 53.12560 | -2.85365 | 23405 ft | 409 kts | 18° |
| 2026-04-22 10:59 | 53.15229 | -2.83696 | 23408 ft | 409 kts | 17° |
| 2026-04-22 11:00 | 53.17898 | -2.82042 | 23408 ft | 409 kts | 18° |
| 2026-04-22 11:00 | 53.20569 | -2.80389 | 23405 ft | 409 kts | 18° |
| 2026-04-22 11:00 | 53.23239 | -2.78730 | 23414 ft | 409 kts | 18° |
| 2026-04-22 11:00 | 53.25907 | -2.77072 | 23407 ft | 410 kts | 17° |
| 2026-04-22 11:01 | 53.28583 | -2.75417 | 23409 ft | 410 kts | 18° |
| 2026-04-22 11:01 | 53.31255 | -2.73759 | 23403 ft | 410 kts | 17° |
| 2026-04-22 11:01 | 53.33934 | -2.72077 | 23402 ft | 410 kts | 18° |
| 2026-04-22 11:01 | 53.36607 | -2.70399 | 23401 ft | 410 kts | 18° |
| 2026-04-22 11:02 | 53.39243 | -2.68746 | 23401 ft | 410 kts | 17° |
| 2026-04-22 11:02 | 53.41918 | -2.67076 | 23406 ft | 410 kts | 17° |
| 2026-04-22 11:02 | 53.44591 | -2.65398 | 23409 ft | 410 kts | 18° |
| 2026-04-22 11:02 | 53.47260 | -2.63723 | 23409 ft | 410 kts | 17° |
| 2026-04-22 11:03 | 53.49940 | -2.62031 | 23411 ft | 410 kts | 18° |
| 2026-04-22 11:03 | 53.52614 | -2.60349 | 23412 ft | 410 kts | 17° |
| 2026-04-22 11:03 | 53.55290 | -2.58655 | 23413 ft | 410 kts | 18° |
| 2026-04-22 11:03 | 53.57956 | -2.56964 | 23413 ft | 410 kts | 18° |
| 2026-04-22 11:04 | 53.60626 | -2.55280 | 23415 ft | 410 kts | 17° |
| 2026-04-22 11:04 | 53.63300 | -2.53597 | 23422 ft | 409 kts | 17° |
| 2026-04-22 11:04 | 53.65966 | -2.51913 | 23421 ft | 410 kts | 18° |
| 2026-04-22 11:04 | 53.68636 | -2.50213 | 23418 ft | 409 kts | 17° |
| 2026-04-22 11:05 | 53.71305 | -2.48516 | 23421 ft | 409 kts | 18° |
| 2026-04-22 11:05 | 53.73968 | -2.46813 | 23416 ft | 409 kts | 17° |
| 2026-04-22 11:05 | 53.76633 | -2.45132 | 23422 ft | 408 kts | 18° |
| 2026-04-22 11:05 | 53.79287 | -2.43422 | 23421 ft | 408 kts | 17° |
| 2026-04-22 11:06 | 53.81940 | -2.41738 | 23428 ft | 407 kts | 17° |
| 2026-04-22 11:06 | 53.84555 | -2.40051 | 23434 ft | 407 kts | 18° |
| 2026-04-22 11:06 | 53.87205 | -2.38352 | 23436 ft | 407 kts | 18° |
| 2026-04-22 11:06 | 53.89853 | -2.36643 | 23437 ft | 407 kts | 17° |
| 2026-04-22 11:07 | 53.92502 | -2.34945 | 23433 ft | 407 kts | 18° |
| 2026-04-22 11:07 | 53.95155 | -2.33246 | 23431 ft | 406 kts | 17° |
| 2026-04-22 11:07 | 53.97821 | -2.31678 | 23431 ft | 403 kts | 9° |
| 2026-04-22 11:07 | 54.00579 | -2.31303 | 23445 ft | 396 kts | 352° |
| 2026-04-22 11:08 | 54.03285 | -2.32023 | 23444 ft | 391 kts | 343° |
| 2026-04-22 11:08 | 54.05859 | -2.33469 | 23446 ft | 389 kts | 336° |
| 2026-04-22 11:08 | 54.08335 | -2.35325 | 23451 ft | 388 kts | 331° |
| 2026-04-22 11:08 | 54.10714 | -2.37367 | 23448 ft | 387 kts | 329° |
| 2026-04-22 11:09 | 54.13087 | -2.39557 | 23455 ft | 387 kts | 328° |
| 2026-04-22 11:09 | 54.15439 | -2.41799 | 23456 ft | 387 kts | 328° |
| 2026-04-22 11:09 | 54.17780 | -2.44068 | 23456 ft | 387 kts | 328° |
| 2026-04-22 11:09 | 54.20125 | -2.46345 | 23448 ft | 388 kts | 328° |
| 2026-04-22 11:10 | 54.22481 | -2.48594 | 23468 ft | 388 kts | 328° |
| 2026-04-22 11:10 | 54.24843 | -2.50830 | 23470 ft | 388 kts | 328° |
| 2026-04-22 11:10 | 54.27208 | -2.53079 | 23452 ft | 388 kts | 328° |
| 2026-04-22 11:10 | 54.29565 | -2.55325 | 23463 ft | 388 kts | 328° |
| 2026-04-22 11:11 | 54.31931 | -2.57586 | 23462 ft | 391 kts | 328° |
| 2026-04-22 11:11 | 54.34298 | -2.59827 | 23464 ft | 394 kts | 328° |
| 2026-04-22 11:11 | 54.36708 | -2.62103 | 23469 ft | 396 kts | 328° |
| 2026-04-22 11:11 | 54.39121 | -2.64403 | 23470 ft | 397 kts | 328° |
| 2026-04-22 11:12 | 54.41542 | -2.66711 | 23453 ft | 399 kts | 328° |
| 2026-04-22 11:12 | 54.43970 | -2.69037 | 23471 ft | 400 kts | 328° |
| 2026-04-22 11:12 | 54.46414 | -2.71362 | 23469 ft | 402 kts | 328° |
| 2026-04-22 11:12 | 54.48867 | -2.73691 | 23478 ft | 403 kts | 328° |
| 2026-04-22 11:13 | 54.51325 | -2.76052 | 23474 ft | 404 kts | 328° |
| 2026-04-22 11:13 | 54.53785 | -2.78414 | 23479 ft | 405 kts | 328° |
| 2026-04-22 11:13 | 54.56252 | -2.80779 | 23472 ft | 406 kts | 328° |
| 2026-04-22 11:13 | 54.58724 | -2.83154 | 23471 ft | 407 kts | 328° |
| 2026-04-22 11:14 | 54.61197 | -2.85550 | 23476 ft | 408 kts | 328° |
| 2026-04-22 11:14 | 54.63638 | -2.87923 | 23481 ft | 409 kts | 328° |
| 2026-04-22 11:14 | 54.66130 | -2.90320 | 23480 ft | 407 kts | 328° |
| 2026-04-22 11:14 | 54.68597 | -2.92691 | 23477 ft | 405 kts | 328° |
| 2026-04-22 11:15 | 54.71053 | -2.95068 | 23478 ft | 403 kts | 328° |
| 2026-04-22 11:15 | 54.73493 | -2.97438 | 23501 ft | 402 kts | 328° |
| 2026-04-22 11:15 | 54.75926 | -2.99823 | 23494 ft | 401 kts | 328° |
| 2026-04-22 11:15 | 54.78356 | -3.02198 | 23483 ft | 401 kts | 328° |
| 2026-04-22 11:16 | 54.80783 | -3.04561 | 23470 ft | 400 kts | 328° |
| 2026-04-22 11:16 | 54.83209 | -3.06921 | 23479 ft | 399 kts | 328° |
| 2026-04-22 11:16 | 54.85626 | -3.09274 | 23481 ft | 398 kts | 328° |
| 2026-04-22 11:16 | 54.88006 | -3.11613 | 23479 ft | 397 kts | 328° |
| 2026-04-22 11:17 | 54.90407 | -3.13981 | 23478 ft | 397 kts | 328° |
| 2026-04-22 11:17 | 54.92808 | -3.16338 | 23486 ft | 396 kts | 328° |
| 2026-04-22 11:17 | 54.95213 | -3.18707 | 23485 ft | 397 kts | 328° |
| 2026-04-22 11:17 | 54.97619 | -3.21086 | 23489 ft | 398 kts | 327° |
| 2026-04-22 11:18 | 55.00025 | -3.23473 | 23487 ft | 399 kts | 327° |
| 2026-04-22 11:18 | 55.02444 | -3.25867 | 23496 ft | 400 kts | 328° |
| 2026-04-22 11:18 | 55.04868 | -3.28268 | 23496 ft | 401 kts | 328° |
| 2026-04-22 11:18 | 55.07305 | -3.30659 | 23496 ft | 402 kts | 328° |
| 2026-04-22 11:19 | 55.09740 | -3.33060 | 23497 ft | 402 kts | 328° |
| 2026-04-22 11:19 | 55.12170 | -3.35476 | 23316 ft | 400 kts | 328° |
| 2026-04-22 11:19 | 55.14583 | -3.37871 | 22827 ft | 400 kts | 328° |
| 2026-04-22 11:19 | 55.16996 | -3.40259 | 22442 ft | 397 kts | 327° |
| 2026-04-22 11:20 | 55.19364 | -3.42617 | 22020 ft | 396 kts | 327° |
| 2026-04-22 11:20 | 55.21763 | -3.45005 | 21564 ft | 396 kts | 328° |
| 2026-04-22 11:20 | 55.24160 | -3.47424 | 21095 ft | 398 kts | 328° |
| 2026-04-22 11:20 | 55.26562 | -3.49851 | 20640 ft | 400 kts | 329° |
| 2026-04-22 11:21 | 55.28979 | -3.52281 | 20189 ft | 401 kts | 329° |
| 2026-04-22 11:21 | 55.30586 | -3.53896 | 19883 ft | 402 kts | 329° |
| 2026-04-22 11:21 | 55.33025 | -3.56344 | 19462 ft | 404 kts | 329° |
| 2026-04-22 11:21 | 55.35465 | -3.58806 | 19032 ft | 405 kts | 329° |
| 2026-04-22 11:22 | 55.37916 | -3.61293 | 18551 ft | 407 kts | 329° |
| 2026-04-22 11:22 | 55.40372 | -3.63760 | 18036 ft | 407 kts | 330° |
| 2026-04-22 11:22 | 55.42839 | -3.66228 | 17530 ft | 408 kts | 329° |
| 2026-04-22 11:22 | 55.45305 | -3.68737 | 17024 ft | 409 kts | 329° |
| 2026-04-22 11:23 | 55.47772 | -3.71251 | 16523 ft | 408 kts | 329° |
| 2026-04-22 11:23 | 55.50239 | -3.73732 | 16048 ft | 405 kts | 330° |
| 2026-04-22 11:23 | 55.52628 | -3.76151 | 15565 ft | 397 kts | 329° |
| 2026-04-22 11:23 | 55.54995 | -3.78581 | 15099 ft | 389 kts | 329° |
| 2026-04-22 11:24 | 55.57303 | -3.80956 | 14616 ft | 380 kts | 329° |
| 2026-04-22 11:24 | 55.59569 | -3.83281 | 14128 ft | 371 kts | 329° |
| 2026-04-22 11:24 | 55.61779 | -3.85521 | 13615 ft | 362 kts | 330° |
| 2026-04-22 11:24 | 55.63945 | -3.87719 | 13106 ft | 354 kts | 330° |
| 2026-04-22 11:25 | 55.66065 | -3.89877 | 12601 ft | 347 kts | 330° |
| 2026-04-22 11:25 | 55.68094 | -3.92025 | 12170 ft | 340 kts | 324° |
| 2026-04-22 11:25 | 55.69683 | -3.95031 | 11721 ft | 332 kts | 299° |
| 2026-04-22 11:25 | 55.70483 | -3.98776 | 11287 ft | 321 kts | 279° |
| 2026-04-22 11:26 | 55.70810 | -4.02651 | 10889 ft | 314 kts | 273° |
| 2026-04-22 11:26 | 55.71021 | -4.06479 | 10470 ft | 310 kts | 272° |
| 2026-04-22 11:26 | 55.71187 | -4.10257 | 10020 ft | 305 kts | 271° |
| 2026-04-22 11:26 | 55.71348 | -4.13999 | 9565 ft | 302 kts | 271° |
| 2026-04-22 11:27 | 55.71522 | -4.17685 | 9111 ft | 298 kts | 273° |
| 2026-04-22 11:27 | 55.71711 | -4.21289 | 8654 ft | 285 kts | 273° |
| 2026-04-22 11:27 | 55.71908 | -4.24658 | 8198 ft | 267 kts | 272° |
| 2026-04-22 11:27 | 55.72106 | -4.27958 | 7743 ft | 270 kts | 274° |
| 2026-04-22 11:28 | 55.72302 | -4.31233 | 7322 ft | 263 kts | 274° |
| 2026-04-22 11:28 | 55.72501 | -4.34396 | 6893 ft | 260 kts | 273° |
| 2026-04-22 11:28 | 55.72693 | -4.37603 | 6441 ft | 263 kts | 273° |
| 2026-04-22 11:28 | 55.72881 | -4.40825 | 6013 ft | 259 kts | 274° |
| 2026-04-22 11:29 | 55.73074 | -4.43966 | 5582 ft | 254 kts | 274° |
| 2026-04-22 11:29 | 55.73260 | -4.47054 | 5164 ft | 248 kts | 274° |
| 2026-04-22 11:29 | 55.73453 | -4.50079 | 4717 ft | 246 kts | 272° |
| 2026-04-22 11:29 | 55.73637 | -4.53087 | 4281 ft | 243 kts | 273° |
| 2026-04-22 11:30 | 55.73813 | -4.56053 | 3853 ft | 241 kts | 273° |
| 2026-04-22 11:30 | 55.73988 | -4.59011 | 3411 ft | 240 kts | 274° |
| 2026-04-22 11:30 | 55.73966 | -4.61935 | 2970 ft | 237 kts | 252° |
| 2026-04-22 11:30 | 55.73156 | -4.64391 | 2553 ft | 227 kts | 216° |
| 2026-04-22 11:31 | 55.71861 | -4.65673 | 2436 ft | 212 kts | 195° |
| 2026-04-22 11:31 | 55.70467 | -4.66112 | 2388 ft | 197 kts | 163° |
| 2026-04-22 11:31 | 55.69331 | -4.65048 | 2437 ft | 182 kts | 124° |
| 2026-04-22 11:31 | 55.68826 | -4.63024 | 2461 ft | 184 kts | 105° |
| 2026-04-22 11:32 | 55.68153 | -4.61035 | 2449 ft | 199 kts | 137° |
| 2026-04-22 11:32 | 55.66826 | -4.60202 | 2440 ft | 213 kts | 174° |
| 2026-04-22 11:32 | 55.65382 | -4.60970 | 2446 ft | 225 kts | 210° |
| 2026-04-22 11:32 | 55.64370 | -4.63107 | 2442 ft | 234 kts | 245° |
| 2026-04-22 11:33 | 55.64134 | -4.65945 | 2429 ft | 237 kts | 279° |
| 2026-04-22 11:33 | 55.64728 | -4.68643 | 2430 ft | 236 kts | 304° |
| 2026-04-22 11:33 | 55.65774 | -4.70819 | 2423 ft | 227 kts | 331° |
| 2026-04-22 11:33 | 55.67099 | -4.72020 | 2423 ft | 203 kts | 348° |
| 2026-04-22 11:34 | 55.68438 | -4.72144 | 2419 ft | 190 kts | 12° |
| 2026-04-22 11:34 | 55.69725 | -4.71773 | 2421 ft | 188 kts | 17° |
| 2026-04-22 11:34 | 55.71000 | -4.71292 | 2415 ft | 187 kts | 21° |
| 2026-04-22 11:34 | 55.72108 | -4.70311 | 2416 ft | 173 kts | 43° |
| 2026-04-22 11:35 | 55.73034 | -4.69011 | 2406 ft | 168 kts | 45° |
| 2026-04-22 11:35 | 55.73927 | -4.67678 | 2400 ft | 166 kts | 45° |
| 2026-04-22 11:35 | 55.74780 | -4.66309 | 2416 ft | 165 kts | 49° |
| 2026-04-22 11:35 | 55.75597 | -4.64900 | 2412 ft | 163 kts | 50° |
| 2026-04-22 11:36 | 55.76394 | -4.63463 | 2414 ft | 163 kts | 52° |
| 2026-04-22 11:36 | 55.77175 | -4.62016 | 2396 ft | 161 kts | 52° |
| 2026-04-22 11:36 | 55.77937 | -4.60599 | 2395 ft | 156 kts | 52° |
| 2026-04-22 11:36 | 55.78680 | -4.59208 | 2310 ft | 156 kts | 53° |
| 2026-04-22 11:37 | 55.79415 | -4.57806 | 2081 ft | 148 kts | 51° |
| 2026-04-22 11:37 | 55.80061 | -4.56619 | 1906 ft | 125 kts | 52° |
| 2026-04-22 11:37 | 55.80650 | -4.55526 | 1735 ft | 122 kts | 52° |
| 2026-04-22 11:37 | 55.81219 | -4.54437 | 1569 ft | 119 kts | 53° |
| 2026-04-22 11:38 | 55.81784 | -4.53338 | 1367 ft | 123 kts | 51° |
| 2026-04-22 11:38 | 55.82360 | -4.52260 | 1198 ft | 118 kts | 51° |
| 2026-04-22 11:38 | 55.83512 | -4.50133 | 859 ft | 121 kts | 50° |
| 2026-04-22 11:39 | 55.84090 | -4.49059 | 721 ft | 121 kts | 50° |
| 2026-04-22 11:39 | 55.84675 | -4.47977 | 572 ft | 122 kts | 48° |
| 2026-04-22 11:39 | 55.85266 | -4.46886 | 396 ft | 125 kts | 47° |
| 2026-04-22 11:39 | 55.85881 | -4.45780 | 233 ft | 124 kts | 49° |
| 2026-04-22 11:40 | 55.86449 | -4.44721 | 53 ft | 112 kts | 49° |
| 2026-04-22 11:40 | 55.86881 | -4.43898 | 28 ft | 70 kts | 46° |
| 2026-04-22 11:40 | 55.87143 | -4.43410 | 31 ft | 32 kts | 45° |
| 2026-04-22 11:40 | 55.87277 | -4.43158 | 28 ft | 24 kts | 47° |
| 2026-04-22 11:41 | 55.87392 | -4.42943 | 27 ft | 24 kts | 47° |
| 2026-04-22 11:41 | 55.87495 | -4.42744 | 27 ft | 24 kts | 46° |
| 2026-04-22 11:41 | 55.87630 | -4.42504 | 27 ft | 28 kts | 46° |
| 2026-04-22 11:41 | 55.87743 | -4.42284 | 23 ft | 21 kts | 49° |
| 2026-04-22 11:42 | 55.87739 | -4.42195 | 20 ft | 9 kts | 146° |
| 2026-04-22 11:42 | 55.87657 | -4.42145 | 21 ft | 12 kts | 186° |
| 2026-04-22 11:42 | 55.87613 | -4.42169 | 24 ft | 3 kts | 220° |
| 2026-04-22 11:42 | 55.87577 | -4.42228 | 24 ft | 12 kts | 224° |
| 2026-04-22 11:43 | 55.87516 | -4.42351 | 24 ft | 16 kts | 226° |
| 2026-04-22 11:43 | 55.87438 | -4.42497 | 29 ft | 19 kts | 226° |
| 2026-04-22 11:43 | 55.87332 | -4.42628 | 26 ft | 18 kts | 198° |
| 2026-04-22 11:43 | 55.87214 | -4.42699 | 25 ft | 17 kts | 204° |
| 2026-04-22 11:44 | 55.87107 | -4.42777 | 28 ft | 16 kts | 200° |
| 2026-04-22 11:44 | 55.87009 | -4.42841 | 26 ft | 14 kts | 200° |
| 2026-04-22 11:44 | 55.86928 | -4.42910 | 28 ft | 12 kts | 206° |
| 2026-04-22 11:44 | 55.86860 | -4.42971 | 29 ft | 9 kts | 212° |
| 2026-04-22 11:45 | 55.86845 | -4.43015 | 29 ft | 10 kts | 257° |
| 2026-04-22 11:45 | 55.86828 | -4.43142 | 29 ft | 5 kts | 242° |
| 2026-04-22 11:45 | 55.86820 | -4.43149 | 29 ft | 4 kts | 188° |
| 2026-04-22 11:45 | 55.86786 | -4.43138 | 29 ft | 4 kts | 165° |
| 2026-04-22 11:46 | 55.86752 | -4.43122 | 28 ft | 0 kts | 163° |